Flight Track Log - Related Links

Times and Time Zones

All times are in EDT time to prevent confusion due to time zone crossing. See the C-FWOA flight status page for this flight to view local times or setup timezone preferences in your user account.

Time Position Orientation Groundspeed Altitude Reporting Facility
EDT Latitude Longitude Course Direction KTS MPH feet Rate Location/Type
Sun 01:53:53 PM 49.2000 -122.7500 66° East 110 127 800  Level Vancouver Center
Sun 01:54:53 PM 49.1833 -122.8000 243° Southwest 120 138 1,500 600 Climbing Vancouver Center
Sun 01:55:53 PM 49.1833 -122.7500 90° East 120 138 2,000 400 Climbing Vancouver Center
Sun 01:56:53 PM 49.2000 -122.7000 63° Northeast 150 173 2,300 450 Climbing Vancouver Center
Sun 01:57:53 PM 49.1833 -122.6833 147° Southeast 130 150 2,900 400 Climbing Vancouver Center
Sun 01:58:00 PM 49.2161 -122.7100 66° East  Level Estimated
Sun 01:58:53 PM 49.1333 -122.6833 180° South 140 161 3,100  Level Vancouver Center
Sun 01:59:00 PM 49.2161 -122.7100 66° East  Level Estimated
Sun 01:59:53 PM 49.1000 -122.6833 180° South 150 173 3,100  Level Vancouver Center
Sun 02:00:53 PM 49.0500 -122.6833 180° South 150 173 3,300 400 Climbing Vancouver Center
Sun 02:01:53 PM 49.0167 -122.6500 147° Southeast 140 161 3,900 600 Climbing Vancouver Center
Sun 02:02:53 PM 48.9833 -122.6333 162° South 130 150 4,500 600 Climbing Vancouver Center
Sun 02:03:53 PM 48.9500 -122.6000 147° Southeast 130 150 5,100 600 Climbing Vancouver Center
Sun 02:04:53 PM 48.9333 -122.5500 117° Southeast 140 161 5,700 550 Climbing Vancouver Center
Sun 02:05:53 PM 48.9500 -122.5000 63° Northeast 140 161 6,200 550 Climbing Vancouver Center
Sun 02:06:53 PM 48.9833 -122.4500 45° Northeast 140 161 6,800 550 Climbing Vancouver Center
Sun 02:07:53 PM 49.0000 -122.4000 63° Northeast 150 173 7,300 500 Climbing Vancouver Center
Sun 02:08:53 PM 49.0167 -122.3500 63° Northeast 150 173 7,800 550 Climbing Vancouver Center
Sun 02:09:53 PM 49.0500 -122.3000 45° Northeast 150 173 8,400 550 Climbing Vancouver Center
Sun 02:10:53 PM 49.0667 -122.2500 63° Northeast 150 173 8,900 650 Climbing Vancouver Center
Sun 02:11:53 PM 49.0833 -122.1667 73° East 150 173 9,700 850 Climbing Vancouver Center
Sun 02:12:53 PM 49.1000 -122.1500 33° Northeast 140 161 10,600 700 Climbing Vancouver Center
Sun 02:13:53 PM 49.1333 -122.0833 53° Northeast 130 150 11,100 250 Climbing Vancouver Center
Sun 02:14:53 PM 49.1333 -122.0333 90° East 150 173 11,100  Level Vancouver Center
Sun 02:15:53 PM 49.1500 -121.9667 69° East 160 184 11,100  Level Vancouver Center
Sun 02:16:53 PM 49.1833 -121.9167 44° Northeast 160 184 11,100  Level Vancouver Center
Sun 02:17:53 PM 49.2000 -121.8500 69° East 160 184 11,100  Level Vancouver Center
Sun 02:18:53 PM 49.2167 -121.7833 69° East 160 184 11,100  Level Vancouver Center
Sun 02:19:53 PM 49.2500 -121.7333 44° Northeast 160 184 11,100  Level Vancouver Center
Sun 02:20:53 PM 49.2667 -121.6833 63° Northeast 160 184 11,100  Level Vancouver Center
Sun 02:21:53 PM 49.3000 -121.6000 58° Northeast 160 184 11,100  Level Vancouver Center
Sun 02:22:53 PM 49.3167 -121.5500 63° Northeast 160 184 11,100  Level Vancouver Center
Sun 02:23:53 PM 49.3333 -121.5000 63° Northeast 160 184 11,100  Level Vancouver Center
Sun 02:24:53 PM 49.3667 -121.4167 58° Northeast 160 184 11,100  Level Vancouver Center
Sun 02:25:53 PM 49.3833 -121.3667 63° Northeast 170 196 11,100  Level Vancouver Center
Sun 02:26:53 PM 49.4167 -121.3167 44° Northeast 170 196 11,100  Level Vancouver Center
Sun 02:28:53 PM 49.4500 -121.1833 69° East 170 196 11,100  Level Vancouver Center
Sun 02:29:53 PM 49.4667 -121.1000 73° East 170 196 11,100  Level Vancouver Center
Sun 02:30:53 PM 49.4833 -121.0500 63° Northeast 170 196 11,100  Level Vancouver Center
Sun 02:31:53 PM 49.5167 -121.0000 44° Northeast 160 184 11,100  Level Vancouver Center
Sun 02:32:53 PM 49.5333 -120.9167 73° East 160 184 11,100  Level Vancouver Center
Sun 02:33:53 PM 49.5500 -120.8667 63° Northeast 160 184 11,100  Level Vancouver Center
Sun 02:34:53 PM 49.5833 -120.8167 44° Northeast 170 196 11,100  Level Vancouver Center
Sun 02:35:53 PM 49.6000 -120.7333 73° East 160 184 11,100  Level Vancouver Center
Sun 02:36:53 PM 49.6167 -120.6833 63° Northeast 160 184 11,100  Level Vancouver Center
Sun 02:37:53 PM 49.6500 -120.6000 58° Northeast 170 196 11,100  Level Vancouver Center
Sun 02:38:53 PM 49.6667 -120.5500 63° Northeast 170 196 11,100  Level Vancouver Center
Sun 02:39:53 PM 49.6833 -120.5000 63° Northeast 170 196 11,100 -50 Level Vancouver Center
Sun 02:40:53 PM 49.7000 -120.4167 73° East 170 196 11,000 -50 Descending Vancouver Center
Sun 02:41:53 PM 49.7167 -120.3667 63° Northeast 170 196 11,000  Level Vancouver Center
Sun 02:42:53 PM 49.7500 -120.2833 58° Northeast 170 196 11,000  Level Vancouver Center
Sun 02:43:53 PM 49.7667 -120.2333 63° Northeast 170 196 11,000  Level Vancouver Center
Sun 02:44:53 PM 49.8000 -120.1500 58° Northeast 170 196 11,000  Level Vancouver Center
Sun 02:45:53 PM 49.8167 -120.1000 63° Northeast 170 196 11,000  Level Vancouver Center
Sun 02:46:53 PM 49.8500 -120.0167 58° Northeast 170 196 11,000  Level Vancouver Center
Sun 02:47:53 PM 49.8500 -119.9667 90° East 170 196 11,000  Level Vancouver Center
Sun 02:48:53 PM 49.8667 -119.9167 63° Northeast 170 196 11,000  Level Vancouver Center
Sun 02:49:53 PM 49.9000 -119.8333 58° Northeast 170 196 11,000  Level Vancouver Center
Sun 02:50:53 PM 49.9167 -119.7833 63° Northeast 170 196 11,000  Level Vancouver Center
Sun 02:51:53 PM 49.9500 -119.7000 58° Northeast 170 196 11,000  Level Vancouver Center
Sun 02:52:53 PM 49.9667 -119.6500 63° Northeast 170 196 11,000  Level Vancouver Center
Sun 02:53:53 PM 49.9833 -119.5667 73° East 170 196 11,000 50 Level Vancouver Center
Sun 02:54:53 PM 50.0167 -119.5167 44° Northeast 170 196 11,100 250 Climbing Vancouver Center
Sun 02:55:53 PM 50.0167 -119.4500 90° East 160 184 11,500 400 Climbing Vancouver Center
Sun 02:56:53 PM 49.9833 -119.4167 147° Southeast 160 184 11,900 250 Climbing Vancouver Center
Sun 02:57:53 PM 49.9333 -119.4333 192° South 180 207 12,000 50 Climbing Vancouver Center
Sun 02:58:53 PM 49.8833 -119.4500 192° South 190 219 12,000  Level Vancouver Center
Sun 02:59:53 PM 49.8333 -119.4667 192° South 190 219 12,000  Level Vancouver Center
Sun 03:00:53 PM 49.7667 -119.4833 189° South 190 219 12,000  Level Vancouver Center
Sun 03:01:53 PM 49.7333 -119.5167 213° Southwest 190 219 12,000  Level Vancouver Center
Sun 03:02:53 PM 49.6833 -119.5167 180° South 190 219 12,000  Level Vancouver Center
Sun 03:03:53 PM 49.6333 -119.5500 203° Southwest 190 219 12,000  Level Vancouver Center
Sun 03:04:53 PM 49.5833 -119.5500 180° South 190 219 12,000  Level Vancouver Center
Sun 03:05:53 PM 49.5333 -119.5833 203° Southwest 190 219 12,000  Level Vancouver Center
Sun 03:06:53 PM 49.4833 -119.6167 203° Southwest 190 219 12,000  Level Vancouver Center
Sun 03:07:53 PM 49.4500 -119.6667 224° Southwest 180 207 12,000  Level Vancouver Center
Sun 03:08:53 PM 49.4500 -119.7333 270° West 170 196 12,000  Level Vancouver Center
Sun 03:09:53 PM 49.4333 -119.8167 253° West 170 196 12,000  Level Vancouver Center
Sun 03:10:53 PM 49.4333 -119.9000 270° West 170 196 12,000  Level Vancouver Center
Sun 03:11:53 PM 49.4167 -119.9667 249° West 170 196 12,000  Level Vancouver Center
Sun 03:12:53 PM 49.4167 -120.0333 270° West 160 184 12,000  Level Vancouver Center
Sun 03:13:53 PM 49.4000 -120.1000 249° West 170 196 12,000  Level Vancouver Center
Sun 03:14:53 PM 49.4000 -120.1833 270° West 170 196 12,000  Level Vancouver Center
Sun 03:15:53 PM 49.3833 -120.2333 243° Southwest 170 196 12,000  Level Vancouver Center
Sun 03:16:53 PM 49.3667 -120.3167 253° West 170 196 12,000  Level Vancouver Center
Sun 03:17:53 PM 49.3500 -120.3833 249° West 170 196 12,000  Level Vancouver Center
Sun 03:18:53 PM 49.3500 -120.4667 270° West 160 184 12,000 50 Level Vancouver Center
Sun 03:19:53 PM 49.3500 -120.5167 270° West 170 196 12,100 50 Climbing Vancouver Center
Sun 03:20:53 PM 49.3667 -120.6000 287° West 170 196 12,100  Level Vancouver Center
Sun 03:21:53 PM 49.3500 -120.6667 249° West 170 196 12,100  Level Vancouver Center
Sun 03:22:53 PM 49.3500 -120.7500 270° West 160 184 12,100  Level Vancouver Center
Sun 03:23:53 PM 49.3333 -120.8000 243° Southwest 170 196 12,100  Level Vancouver Center
Sun 03:24:53 PM 49.3333 -120.8833 270° West 170 196 12,100  Level Vancouver Center
Sun 03:25:53 PM 49.3333 -120.9500 270° West 180 207 12,100  Level Vancouver Center
Sun 03:26:53 PM 49.3333 -121.0333 270° West 170 196 12,100  Level Vancouver Center
Sun 03:27:53 PM 49.3167 -121.1167 253° West 180 207 12,100 -50 Level Vancouver Center
Sun 03:28:53 PM 49.3333 -121.1833 291° West 180 207 12,000 -350 Descending Vancouver Center
Sun 03:29:53 PM 49.3333 -121.2667 270° West 190 219 11,400 -550 Descending Vancouver Center
Sun 03:30:53 PM 49.3333 -121.3333 270° West 180 207 10,900 -550 Descending Vancouver Center
Sun 03:31:53 PM 49.3500 -121.4167 287° West 180 207 10,300 -700 Descending Vancouver Center
Sun 03:32:53 PM 49.3333 -121.5000 253° West 180 207 9,500 -750 Descending Vancouver Center
Sun 03:33:53 PM 49.3000 -121.5500 224° Southwest 180 207 8,800 -750 Descending Vancouver Center
Sun 03:34:53 PM 49.2833 -121.6167 249° West 180 207 8,000 -744 Descending Vancouver Center
Sun 03:35:54 PM 49.2500 -121.6833 233° Southwest 180 207 7,300 -700 Descending Vancouver Center
Sun 03:36:53 PM 49.2167 -121.7500 233° Southwest 180 207 6,600 -605 Descending Vancouver Center
Sun 03:37:53 PM 49.2000 -121.8000 243° Southwest 180 207 6,100 -500 Descending Vancouver Center
Sun 03:38:53 PM 49.1833 -121.8833 253° West 170 196 5,600 -500 Descending Vancouver Center
Sun 03:39:53 PM 49.1667 -121.9667 253° West 170 196 5,100 -496 Descending Vancouver Center
Sun 03:40:54 PM 49.1500 -122.0167 243° Southwest 170 196 4,600 -500 Descending Vancouver Center
Sun 03:41:53 PM 49.1500 -122.0833 270° West 170 196 4,100 -504 Descending Vancouver Center
Sun 03:42:53 PM 49.1500 -122.1667 270° West 170 196 3,600 -450 Descending Vancouver Center
Sun 03:43:53 PM 49.1333 -122.2167 243° Southwest 170 196 3,200 -450 Descending Vancouver Center
Sun 03:44:53 PM 49.1167 -122.3000 253° West 170 196 2,700 -450 Descending Vancouver Center
Sun 03:45:53 PM 49.1333 -122.3667 291° West 170 196 2,300 -347 Descending Vancouver Center
Sun 03:46:54 PM 49.1500 -122.4167 297° West 170 196 2,000 -350 Descending Vancouver Center
Sun 03:47:53 PM 49.1500 -122.5000 270° West 170 196 1,600 -400 Descending Vancouver Center
Sun 03:48:54 PM 49.1667 -122.5667 291° West 160 184 1,200 -198 Descending Vancouver Center
Sun 03:49:54 PM 49.1833 -122.6167 297° West 150 173 1,200  Level Vancouver Center

Login

Don't have an account? Register now (free) for customized features, flight alerts, and more!